< < Back
Terminal Aerodrome Forecast


Current Version              Previous Versions:   1  2  3  4  5  6  7  8  9  

Terminal Aerodrome Forecast

456
FTUS42 KFFC 292300
TAFCSG
TAF
KCSG 292320Z 3000/3024 VRB03KT P6SM SCT080 SCT250
     FM301500 18006KT P6SM SCT025 BKN050 PROB30 3017/3023 6SM TSRA
      BKN045CB=

Latest METAR

789
SAUS70 KWBC 300600
MTRCSG
METAR KCSG 300551Z 00000KT 10SM CLR 27/20 A3009 RMK AO2 SLP183 T02670200
10317 20267 51004


USA.gov is the U.S. government's official web portal to all federal, state and local government web resources and services.